sensor_id;sensor_type;location;lat;lon;timestamp;P1;durP1;ratioP1;P2;durP2;ratioP2
19842;SDS011;10082;51.038;6.992;2023-03-01T00:01:47;9.70;;;8.63;;
19842;SDS011;10082;51.038;6.992;2023-03-01T00:04:15;8.27;;;7.47;;
19842;SDS011;10082;51.038;6.992;2023-03-01T00:06:42;8.43;;;7.57;;
19842;SDS011;10082;51.038;6.992;2023-03-01T00:09:11;7.80;;;7.10;;
19842;SDS011;10082;51.038;6.992;2023-03-01T00:11:38;8.50;;;7.43;;
19842;SDS011;10082;51.038;6.992;2023-03-01T00:14:06;7.23;;;6.53;;
19842;SDS011;10082;51.038;6.992;2023-03-01T00:16:37;7.03;;;6.37;;
19842;SDS011;10082;51.038;6.992;2023-03-01T00:19:06;7.33;;;6.63;;
19842;SDS011;10082;51.038;6.992;2023-03-01T00:21:34;7.07;;;6.37;;
19842;SDS011;10082;51.038;6.992;2023-03-01T00:24:02;7.57;;;6.87;;
19842;SDS011;10082;51.038;6.992;2023-03-01T00:26:30;6.57;;;5.87;;
19842;SDS011;10082;51.038;6.992;2023-03-01T00:28:58;7.07;;;6.00;;
19842;SDS011;10082;51.038;6.992;2023-03-01T00:31:26;6.40;;;5.80;;
19842;SDS011;10082;51.038;6.992;2023-03-01T00:33:57;6.30;;;5.43;;
19842;SDS011;10082;51.038;6.992;2023-03-01T00:36:27;6.00;;;5.40;;
19842;SDS011;10082;51.038;6.992;2023-03-01T00:38:55;6.40;;;5.70;;
19842;SDS011;10082;51.038;6.992;2023-03-01T00:41:23;6.30;;;5.60;;
19842;SDS011;10082;51.038;6.992;2023-03-01T00:43:52;7.27;;;6.57;;
19842;SDS011;10082;51.038;6.992;2023-03-01T00:46:20;7.03;;;6.33;;
19842;SDS011;10082;51.038;6.992;2023-03-01T00:48:49;7.37;;;6.30;;
19842;SDS011;10082;51.038;6.992;2023-03-01T00:51:19;7.37;;;6.20;;
19842;SDS011;10082;51.038;6.992;2023-03-01T00:53:49;6.77;;;6.07;;
19842;SDS011;10082;51.038;6.992;2023-03-01T00:56:18;6.93;;;6.23;;
19842;SDS011;10082;51.038;6.992;2023-03-01T00:58:45;6.97;;;5.93;;
19842;SDS011;10082;51.038;6.992;2023-03-01T01:01:13;7.33;;;6.63;;
19842;SDS011;10082;51.038;6.992;2023-03-01T01:03:44;7.23;;;6.47;;
19842;SDS011;10082;51.038;6.992;2023-03-01T01:06:14;6.87;;;6.20;;
19842;SDS011;10082;51.038;6.992;2023-03-01T01:08:47;7.30;;;6.53;;
19842;SDS011;10082;51.038;6.992;2023-03-01T01:11:16;7.40;;;6.07;;
19842;SDS011;10082;51.038;6.992;2023-03-01T01:13:44;7.07;;;5.87;;
19842;SDS011;10082;51.038;6.992;2023-03-01T01:16:13;7.47;;;6.80;;
19842;SDS011;10082;51.038;6.992;2023-03-01T01:18:41;8.60;;;6.87;;
19842;SDS011;10082;51.038;6.992;2023-03-01T01:21:10;7.53;;;6.80;;
19842;SDS011;10082;51.038;6.992;2023-03-01T01:23:40;7.87;;;7.17;;
19842;SDS011;10082;51.038;6.992;2023-03-01T01:26:09;7.47;;;6.77;;
19842;SDS011;10082;51.038;6.992;2023-03-01T01:28:42;7.43;;;6.73;;
19842;SDS011;10082;51.038;6.992;2023-03-01T01:31:13;8.30;;;6.93;;
19842;SDS011;10082;51.038;6.992;2023-03-01T01:33:42;7.03;;;6.23;;
19842;SDS011;10082;51.038;6.992;2023-03-01T01:36:13;6.73;;;6.03;;
19842;SDS011;10082;51.038;6.992;2023-03-01T01:38:43;7.20;;;6.50;;
19842;SDS011;10082;51.038;6.992;2023-03-01T01:41:18;7.67;;;6.87;;
19842;SDS011;10082;51.038;6.992;2023-03-01T01:44:09;6.93;;;6.30;;
19842;SDS011;10082;51.038;6.992;2023-03-01T01:46:43;7.67;;;6.63;;
19842;SDS011;10082;51.038;6.992;2023-03-01T01:49:16;6.90;;;6.20;;
19842;SDS011;10082;51.038;6.992;2023-03-01T01:51:49;7.37;;;6.67;;
19842;SDS011;10082;51.038;6.992;2023-03-01T01:54:24;6.73;;;6.00;;
19842;SDS011;10082;51.038;6.992;2023-03-01T01:56:55;7.43;;;6.73;;
19842;SDS011;10082;51.038;6.992;2023-03-01T01:59:26;7.90;;;7.20;;
19842;SDS011;10082;51.038;6.992;2023-03-01T02:01:58;9.27;;;6.90;;
19842;SDS011;10082;51.038;6.992;2023-03-01T02:04:31;7.30;;;6.60;;
19842;SDS011;10082;51.038;6.992;2023-03-01T02:07:00;9.23;;;7.53;;
19842;SDS011;10082;51.038;6.992;2023-03-01T02:09:33;7.30;;;6.70;;
19842;SDS011;10082;51.038;6.992;2023-03-01T02:12:11;7.77;;;6.90;;
19842;SDS011;10082;51.038;6.992;2023-03-01T02:14:40;7.43;;;6.67;;
19842;SDS011;10082;51.038;6.992;2023-03-01T02:17:12;7.20;;;6.50;;
19842;SDS011;10082;51.038;6.992;2023-03-01T02:19:44;7.47;;;6.60;;
19842;SDS011;10082;51.038;6.992;2023-03-01T02:22:25;7.73;;;6.80;;
19842;SDS011;10082;51.038;6.992;2023-03-01T02:25:08;7.27;;;6.53;;
19842;SDS011;10082;51.038;6.992;2023-03-01T02:27:49;7.70;;;6.50;;
19842;SDS011;10082;51.038;6.992;2023-03-01T02:30:31;6.90;;;6.30;;
19842;SDS011;10082;51.038;6.992;2023-03-01T02:33:03;7.47;;;6.77;;
19842;SDS011;10082;51.038;6.992;2023-03-01T02:35:34;7.63;;;6.83;;
19842;SDS011;10082;51.038;6.992;2023-03-01T02:38:06;7.47;;;6.67;;
19842;SDS011;10082;51.038;6.992;2023-03-01T02:40:35;8.13;;;7.27;;
19842;SDS011;10082;51.038;6.992;2023-03-01T02:43:07;8.27;;;7.47;;
19842;SDS011;10082;51.038;6.992;2023-03-01T02:45:52;7.97;;;7.17;;
19842;SDS011;10082;51.038;6.992;2023-03-01T02:48:27;7.33;;;6.63;;
19842;SDS011;10082;51.038;6.992;2023-03-01T02:51:01;7.67;;;6.97;;
19842;SDS011;10082;51.038;6.992;2023-03-01T02:53:36;7.20;;;6.50;;
19842;SDS011;10082;51.038;6.992;2023-03-01T02:56:12;7.57;;;6.87;;
19842;SDS011;10082;51.038;6.992;2023-03-01T02:58:40;7.10;;;6.40;;
19842;SDS011;10082;51.038;6.992;2023-03-01T03:01:18;7.67;;;6.67;;
19842;SDS011;10082;51.038;6.992;2023-03-01T03:03:46;7.20;;;6.47;;
19842;SDS011;10082;51.038;6.992;2023-03-01T03:06:13;7.33;;;6.63;;
19842;SDS011;10082;51.038;6.992;2023-03-01T03:08:41;7.50;;;6.80;;
19842;SDS011;10082;51.038;6.992;2023-03-01T03:11:09;8.27;;;7.00;;
19842;SDS011;10082;51.038;6.992;2023-03-01T03:13:36;7.77;;;6.97;;
19842;SDS011;10082;51.038;6.992;2023-03-01T03:16:16;8.33;;;7.53;;
19842;SDS011;10082;51.038;6.992;2023-03-01T03:18:46;9.03;;;7.20;;
19842;SDS011;10082;51.038;6.992;2023-03-01T03:21:13;8.13;;;6.97;;
19842;SDS011;10082;51.038;6.992;2023-03-01T03:23:41;8.63;;;7.73;;
19842;SDS011;10082;51.038;6.992;2023-03-01T03:26:08;8.70;;;7.80;;
19842;SDS011;10082;51.038;6.992;2023-03-01T03:28:40;7.87;;;7.07;;
19842;SDS011;10082;51.038;6.992;2023-03-01T03:31:07;9.50;;;8.53;;
19842;SDS011;10082;51.038;6.992;2023-03-01T03:33:36;9.00;;;8.00;;
19842;SDS011;10082;51.038;6.992;2023-03-01T03:36:04;9.63;;;8.60;;
19842;SDS011;10082;51.038;6.992;2023-03-01T03:38:32;8.90;;;8.00;;
19842;SDS011;10082;51.038;6.992;2023-03-01T03:41:03;8.67;;;7.77;;
19842;SDS011;10082;51.038;6.992;2023-03-01T03:43:35;8.93;;;8.07;;
19842;SDS011;10082;51.038;6.992;2023-03-01T03:46:04;9.13;;;8.23;;
19842;SDS011;10082;51.038;6.992;2023-03-01T03:48:33;8.40;;;7.63;;
19842;SDS011;10082;51.038;6.992;2023-03-01T03:51:03;8.77;;;7.87;;
19842;SDS011;10082;51.038;6.992;2023-03-01T03:53:31;9.07;;;7.87;;
19842;SDS011;10082;51.038;6.992;2023-03-01T03:55:59;9.27;;;8.37;;
19842;SDS011;10082;51.038;6.992;2023-03-01T03:58:27;8.27;;;7.47;;
19842;SDS011;10082;51.038;6.992;2023-03-01T04:00:55;8.80;;;8.00;;
19842;SDS011;10082;51.038;6.992;2023-03-01T04:03:25;9.10;;;8.13;;
19842;SDS011;10082;51.038;6.992;2023-03-01T04:05:59;8.73;;;7.93;;
19842;SDS011;10082;51.038;6.992;2023-03-01T04:08:28;9.37;;;8.47;;
19842;SDS011;10082;51.038;6.992;2023-03-01T04:10:59;9.03;;;8.23;;
19842;SDS011;10082;51.038;6.992;2023-03-01T04:13:49;9.30;;;8.40;;
19842;SDS011;10082;51.038;6.992;2023-03-01T04:16:17;10.10;;;9.00;;
19842;SDS011;10082;51.038;6.992;2023-03-01T04:18:45;9.17;;;8.37;;
19842;SDS011;10082;51.038;6.992;2023-03-01T04:21:20;9.97;;;9.07;;
19842;SDS011;10082;51.038;6.992;2023-03-01T04:23:50;9.87;;;8.97;;
19842;SDS011;10082;51.038;6.992;2023-03-01T04:26:20;10.13;;;9.13;;
19842;SDS011;10082;51.038;6.992;2023-03-01T04:28:48;10.00;;;9.00;;
19842;SDS011;10082;51.038;6.992;2023-03-01T04:31:17;10.77;;;9.77;;
19842;SDS011;10082;51.038;6.992;2023-03-01T04:33:49;9.67;;;8.77;;
19842;SDS011;10082;51.038;6.992;2023-03-01T04:36:18;10.60;;;9.60;;
19842;SDS011;10082;51.038;6.992;2023-03-01T04:38:50;9.30;;;8.40;;
19842;SDS011;10082;51.038;6.992;2023-03-01T04:41:29;9.60;;;8.53;;
19842;SDS011;10082;51.038;6.992;2023-03-01T04:43:59;9.77;;;8.73;;
19842;SDS011;10082;51.038;6.992;2023-03-01T04:46:29;10.30;;;9.30;;
19842;SDS011;10082;51.038;6.992;2023-03-01T04:48:56;10.13;;;9.23;;
19842;SDS011;10082;51.038;6.992;2023-03-01T04:51:24;11.03;;;10.03;;
19842;SDS011;10082;51.038;6.992;2023-03-01T04:53:57;10.43;;;9.53;;
19842;SDS011;10082;51.038;6.992;2023-03-01T04:56:27;11.20;;;10.07;;
19842;SDS011;10082;51.038;6.992;2023-03-01T04:58:56;10.63;;;9.53;;
19842;SDS011;10082;51.038;6.992;2023-03-01T05:01:34;11.60;;;10.60;;
19842;SDS011;10082;51.038;6.992;2023-03-01T05:04:04;11.00;;;10.10;;
19842;SDS011;10082;51.038;6.992;2023-03-01T05:06:32;11.03;;;10.03;;
19842;SDS011;10082;51.038;6.992;2023-03-01T05:09:02;10.97;;;10.03;;
19842;SDS011;10082;51.038;6.992;2023-03-01T05:11:30;11.47;;;10.47;;
19842;SDS011;10082;51.038;6.992;2023-03-01T05:14:02;10.87;;;9.87;;
19842;SDS011;10082;51.038;6.992;2023-03-01T05:16:31;12.13;;;11.07;;
19842;SDS011;10082;51.038;6.992;2023-03-01T05:19:08;11.87;;;10.70;;
19842;SDS011;10082;51.038;6.992;2023-03-01T05:21:40;11.57;;;10.57;;
19842;SDS011;10082;51.038;6.992;2023-03-01T05:24:27;12.20;;;11.00;;
19842;SDS011;10082;51.038;6.992;2023-03-01T05:26:56;11.50;;;10.50;;
19842;SDS011;10082;51.038;6.992;2023-03-01T05:29:26;11.20;;;10.20;;
19842;SDS011;10082;51.038;6.992;2023-03-01T05:31:56;10.80;;;9.90;;
19842;SDS011;10082;51.038;6.992;2023-03-01T05:34:24;11.03;;;10.13;;
19842;SDS011;10082;51.038;6.992;2023-03-01T05:36:54;12.07;;;10.97;;
19842;SDS011;10082;51.038;6.992;2023-03-01T05:39:29;12.63;;;11.33;;
19842;SDS011;10082;51.038;6.992;2023-03-01T05:41:57;12.93;;;11.63;;
19842;SDS011;10082;51.038;6.992;2023-03-01T05:44:26;13.40;;;11.63;;
19842;SDS011;10082;51.038;6.992;2023-03-01T05:46:56;12.93;;;11.53;;
19842;SDS011;10082;51.038;6.992;2023-03-01T05:49:23;12.17;;;11.07;;
19842;SDS011;10082;51.038;6.992;2023-03-01T05:51:52;12.87;;;10.63;;
19842;SDS011;10082;51.038;6.992;2023-03-01T05:54:23;12.03;;;11.03;;
19842;SDS011;10082;51.038;6.992;2023-03-01T05:56:52;12.33;;;11.23;;
19842;SDS011;10082;51.038;6.992;2023-03-01T05:59:22;13.20;;;11.90;;
19842;SDS011;10082;51.038;6.992;2023-03-01T06:01:52;13.10;;;11.90;;
19842;SDS011;10082;51.038;6.992;2023-03-01T06:04:21;13.37;;;12.10;;
19842;SDS011;10082;51.038;6.992;2023-03-01T06:06:49;13.20;;;11.93;;
19842;SDS011;10082;51.038;6.992;2023-03-01T06:09:18;12.30;;;11.30;;
19842;SDS011;10082;51.038;6.992;2023-03-01T06:11:54;13.47;;;12.07;;
19842;SDS011;10082;51.038;6.992;2023-03-01T06:14:21;13.30;;;12.10;;
19842;SDS011;10082;51.038;6.992;2023-03-01T06:16:48;13.67;;;12.47;;
19842;SDS011;10082;51.038;6.992;2023-03-01T06:19:15;13.47;;;12.17;;
19842;SDS011;10082;51.038;6.992;2023-03-01T06:21:43;13.07;;;11.77;;
19842;SDS011;10082;51.038;6.992;2023-03-01T06:24:10;12.77;;;11.67;;
19842;SDS011;10082;51.038;6.992;2023-03-01T06:26:37;13.47;;;12.17;;
19842;SDS011;10082;51.038;6.992;2023-03-01T06:29:07;13.20;;;11.53;;
19842;SDS011;10082;51.038;6.992;2023-03-01T06:31:35;12.50;;;11.40;;
19842;SDS011;10082;51.038;6.992;2023-03-01T06:34:02;13.40;;;12.10;;
19842;SDS011;10082;51.038;6.992;2023-03-01T06:36:30;13.63;;;12.33;;
19842;SDS011;10082;51.038;6.992;2023-03-01T06:38:58;13.07;;;11.87;;
19842;SDS011;10082;51.038;6.992;2023-03-01T06:41:25;13.17;;;11.77;;
19842;SDS011;10082;51.038;6.992;2023-03-01T06:43:53;13.23;;;12.03;;
19842;SDS011;10082;51.038;6.992;2023-03-01T06:46:21;12.73;;;11.53;;
19842;SDS011;10082;51.038;6.992;2023-03-01T06:48:49;14.33;;;13.03;;
19842;SDS011;10082;51.038;6.992;2023-03-01T06:51:20;13.80;;;12.00;;
19842;SDS011;10082;51.038;6.992;2023-03-01T06:53:51;13.30;;;12.10;;
19842;SDS011;10082;51.038;6.992;2023-03-01T06:56:22;14.37;;;12.97;;
19842;SDS011;10082;51.038;6.992;2023-03-01T06:58:51;16.70;;;13.00;;
19842;SDS011;10082;51.038;6.992;2023-03-01T07:04:01;13.33;;;12.13;;
19842;SDS011;10082;51.038;6.992;2023-03-01T07:06:29;15.70;;;12.70;;
19842;SDS011;10082;51.038;6.992;2023-03-01T07:08:56;14.27;;;12.90;;
19842;SDS011;10082;51.038;6.992;2023-03-01T07:11:24;14.03;;;12.57;;
19842;SDS011;10082;51.038;6.992;2023-03-01T07:13:53;14.23;;;12.83;;
19842;SDS011;10082;51.038;6.992;2023-03-01T07:16:21;13.70;;;12.37;;
19842;SDS011;10082;51.038;6.992;2023-03-01T07:18:50;14.20;;;12.90;;
19842;SDS011;10082;51.038;6.992;2023-03-01T07:21:17;13.50;;;12.17;;
19842;SDS011;10082;51.038;6.992;2023-03-01T07:23:46;13.40;;;12.17;;
19842;SDS011;10082;51.038;6.992;2023-03-01T07:26:14;13.60;;;12.33;;
19842;SDS011;10082;51.038;6.992;2023-03-01T07:28:41;13.70;;;12.37;;
19842;SDS011;10082;51.038;6.992;2023-03-01T07:31:08;13.67;;;11.63;;
19842;SDS011;10082;51.038;6.992;2023-03-01T07:33:36;12.33;;;11.23;;
19842;SDS011;10082;51.038;6.992;2023-03-01T07:36:06;12.20;;;10.60;;
19842;SDS011;10082;51.038;6.992;2023-03-01T07:38:34;10.40;;;9.50;;
19842;SDS011;10082;51.038;6.992;2023-03-01T07:41:03;9.27;;;8.37;;
19842;SDS011;10082;51.038;6.992;2023-03-01T07:43:31;9.13;;;8.23;;
19842;SDS011;10082;51.038;6.992;2023-03-01T07:45:59;10.00;;;9.02;;
19842;SDS011;10082;51.038;6.992;2023-03-01T07:48:27;9.52;;;8.70;;
19842;SDS011;10082;51.038;6.992;2023-03-01T07:50:57;10.02;;;9.00;;
19842;SDS011;10082;51.038;6.992;2023-03-01T07:53:29;10.02;;;9.02;;
19842;SDS011;10082;51.038;6.992;2023-03-01T07:56:05;9.75;;;8.75;;
19842;SDS011;10082;51.038;6.992;2023-03-01T07:58:37;9.70;;;8.80;;
19842;SDS011;10082;51.038;6.992;2023-03-01T08:01:10;10.35;;;9.18;;
19842;SDS011;10082;51.038;6.992;2023-03-01T08:03:43;9.52;;;8.73;;
19842;SDS011;10082;51.038;6.992;2023-03-01T08:06:13;10.00;;;8.65;;
19842;SDS011;10082;51.038;6.992;2023-03-01T08:08:49;9.13;;;8.27;;
19842;SDS011;10082;51.038;6.992;2023-03-01T08:11:17;9.32;;;8.32;;
19842;SDS011;10082;51.038;6.992;2023-03-01T08:13:46;9.20;;;8.30;;
19842;SDS011;10082;51.038;6.992;2023-03-01T08:16:15;9.40;;;8.52;;
19842;SDS011;10082;51.038;6.992;2023-03-01T08:18:49;8.03;;;7.33;;
19842;SDS011;10082;51.038;6.992;2023-03-01T08:21:21;8.85;;;7.95;;
19842;SDS011;10082;51.038;6.992;2023-03-01T08:23:50;8.43;;;7.60;;
19842;SDS011;10082;51.038;6.992;2023-03-01T08:26:20;9.07;;;8.27;;
19842;SDS011;10082;51.038;6.992;2023-03-01T08:31:35;9.00;;;8.07;;
19842;SDS011;10082;51.038;6.992;2023-03-01T08:34:06;8.30;;;7.50;;
19842;SDS011;10082;51.038;6.992;2023-03-01T08:36:38;8.40;;;7.70;;
19842;SDS011;10082;51.038;6.992;2023-03-01T08:39:08;8.60;;;7.70;;
19842;SDS011;10082;51.038;6.992;2023-03-01T08:41:37;8.77;;;7.87;;
19842;SDS011;10082;51.038;6.992;2023-03-01T08:44:09;8.60;;;7.67;;
19842;SDS011;10082;51.038;6.992;2023-03-01T08:46:40;8.50;;;7.73;;
19842;SDS011;10082;51.038;6.992;2023-03-01T08:49:09;8.47;;;7.77;;
19842;SDS011;10082;51.038;6.992;2023-03-01T08:51:40;8.52;;;7.72;;
19842;SDS011;10082;51.038;6.992;2023-03-01T08:54:11;9.13;;;7.63;;
19842;SDS011;10082;51.038;6.992;2023-03-01T08:56:43;8.55;;;7.65;;
19842;SDS011;10082;51.038;6.992;2023-03-01T08:59:13;8.60;;;7.57;;
19842;SDS011;10082;51.038;6.992;2023-03-01T09:01:48;7.28;;;6.68;;
19842;SDS011;10082;51.038;6.992;2023-03-01T09:04:19;8.90;;;8.00;;
19842;SDS011;10082;51.038;6.992;2023-03-01T09:06:47;8.32;;;7.53;;
19842;SDS011;10082;51.038;6.992;2023-03-01T09:09:18;8.13;;;7.13;;
19842;SDS011;10082;51.038;6.992;2023-03-01T09:11:47;7.90;;;7.10;;
19842;SDS011;10082;51.038;6.992;2023-03-01T09:14:15;8.05;;;7.20;;
19842;SDS011;10082;51.038;6.992;2023-03-01T09:16:42;7.30;;;6.32;;
19842;SDS011;10082;51.038;6.992;2023-03-01T09:19:10;7.32;;;6.65;;
19842;SDS011;10082;51.038;6.992;2023-03-01T09:21:38;7.53;;;6.83;;
19842;SDS011;10082;51.038;6.992;2023-03-01T09:24:07;7.60;;;6.90;;
19842;SDS011;10082;51.038;6.992;2023-03-01T09:26:42;7.50;;;6.80;;
19842;SDS011;10082;51.038;6.992;2023-03-01T09:29:11;7.43;;;6.60;;
19842;SDS011;10082;51.038;6.992;2023-03-01T09:31:40;8.10;;;7.23;;
19842;SDS011;10082;51.038;6.992;2023-03-01T09:34:07;7.87;;;7.07;;
19842;SDS011;10082;51.038;6.992;2023-03-01T09:36:35;7.57;;;6.78;;
19842;SDS011;10082;51.038;6.992;2023-03-01T09:39:03;7.95;;;7.18;;
19842;SDS011;10082;51.038;6.992;2023-03-01T09:44:29;8.00;;;7.15;;
19842;SDS011;10082;51.038;6.992;2023-03-01T09:47:09;7.05;;;6.45;;
19842;SDS011;10082;51.038;6.992;2023-03-01T09:49:45;7.15;;;6.45;;
19842;SDS011;10082;51.038;6.992;2023-03-01T09:52:24;8.27;;;7.47;;
19842;SDS011;10082;51.038;6.992;2023-03-01T09:54:57;7.93;;;7.13;;
19842;SDS011;10082;51.038;6.992;2023-03-01T09:57:36;7.65;;;6.85;;
19842;SDS011;10082;51.038;6.992;2023-03-01T10:00:16;8.25;;;7.53;;
19842;SDS011;10082;51.038;6.992;2023-03-01T10:03:05;8.63;;;7.50;;
19842;SDS011;10082;51.038;6.992;2023-03-01T10:05:43;7.75;;;6.05;;
19842;SDS011;10082;51.038;6.992;2023-03-01T10:08:26;7.57;;;6.43;;
19842;SDS011;10082;51.038;6.992;2023-03-01T10:10:59;7.75;;;6.28;;
19842;SDS011;10082;51.038;6.992;2023-03-01T10:13:31;7.10;;;6.10;;
19842;SDS011;10082;51.038;6.992;2023-03-01T10:16:10;7.88;;;6.38;;
19842;SDS011;10082;51.038;6.992;2023-03-01T10:18:42;7.43;;;6.10;;
19842;SDS011;10082;51.038;6.992;2023-03-01T10:21:18;6.82;;;6.20;;
19842;SDS011;10082;51.038;6.992;2023-03-01T10:23:46;8.18;;;6.63;;
19842;SDS011;10082;51.038;6.992;2023-03-01T10:26:22;7.88;;;6.45;;
19842;SDS011;10082;51.038;6.992;2023-03-01T10:29:03;7.68;;;6.88;;
19842;SDS011;10082;51.038;6.992;2023-03-01T10:31:36;7.13;;;6.30;;
19842;SDS011;10082;51.038;6.992;2023-03-01T10:34:13;7.78;;;6.40;;
19842;SDS011;10082;51.038;6.992;2023-03-01T10:36:42;6.93;;;6.05;;
19842;SDS011;10082;51.038;6.992;2023-03-01T10:39:13;7.93;;;6.80;;
19842;SDS011;10082;51.038;6.992;2023-03-01T10:41:51;7.13;;;6.45;;
19842;SDS011;10082;51.038;6.992;2023-03-01T10:44:38;8.23;;;6.70;;
19842;SDS011;10082;51.038;6.992;2023-03-01T10:47:18;7.25;;;6.38;;
19842;SDS011;10082;51.038;6.992;2023-03-01T10:49:51;8.57;;;6.80;;
19842;SDS011;10082;51.038;6.992;2023-03-01T10:52:24;9.50;;;6.28;;
19842;SDS011;10082;51.038;6.992;2023-03-01T10:54:54;7.40;;;6.22;;
19842;SDS011;10082;51.038;6.992;2023-03-01T10:57:31;7.30;;;6.25;;
19842;SDS011;10082;51.038;6.992;2023-03-01T11:03:02;7.10;;;6.00;;
19842;SDS011;10082;51.038;6.992;2023-03-01T11:05:36;8.00;;;6.18;;
19842;SDS011;10082;51.038;6.992;2023-03-01T11:08:26;7.15;;;5.97;;
19842;SDS011;10082;51.038;6.992;2023-03-01T11:11:03;8.88;;;6.32;;
19842;SDS011;10082;51.038;6.992;2023-03-01T11:13:47;9.57;;;6.57;;
19842;SDS011;10082;51.038;6.992;2023-03-01T11:16:24;7.07;;;6.10;;
19842;SDS011;10082;51.038;6.992;2023-03-01T11:18:57;7.40;;;6.15;;
19842;SDS011;10082;51.038;6.992;2023-03-01T11:21:27;7.50;;;6.43;;
19842;SDS011;10082;51.038;6.992;2023-03-01T11:23:58;8.37;;;6.33;;
19842;SDS011;10082;51.038;6.992;2023-03-01T11:26:38;9.43;;;6.27;;
19842;SDS011;10082;51.038;6.992;2023-03-01T11:29:12;8.00;;;7.20;;
19842;SDS011;10082;51.038;6.992;2023-03-01T11:31:49;7.87;;;7.07;;
19842;SDS011;10082;51.038;6.992;2023-03-01T11:34:19;7.30;;;6.50;;
19842;SDS011;10082;51.038;6.992;2023-03-01T11:36:54;7.27;;;6.50;;
19842;SDS011;10082;51.038;6.992;2023-03-01T11:39:31;8.17;;;6.33;;
19842;SDS011;10082;51.038;6.992;2023-03-01T11:42:06;8.37;;;6.10;;
19842;SDS011;10082;51.038;6.992;2023-03-01T11:44:39;6.97;;;5.93;;
19842;SDS011;10082;51.038;6.992;2023-03-01T11:47:18;8.17;;;6.43;;
19842;SDS011;10082;51.038;6.992;2023-03-01T11:50:03;7.40;;;6.63;;
19842;SDS011;10082;51.038;6.992;2023-03-01T11:53:03;7.50;;;5.70;;
19842;SDS011;10082;51.038;6.992;2023-03-01T11:55:53;7.83;;;6.87;;
19842;SDS011;10082;51.038;6.992;2023-03-01T11:58:44;7.70;;;6.90;;
19842;SDS011;10082;51.038;6.992;2023-03-01T12:01:25;7.50;;;6.80;;
19842;SDS011;10082;51.038;6.992;2023-03-01T12:04:23;7.90;;;7.10;;
19842;SDS011;10082;51.038;6.992;2023-03-01T12:07:05;7.90;;;6.90;;
19842;SDS011;10082;51.038;6.992;2023-03-01T12:09:47;7.30;;;6.70;;
19842;SDS011;10082;51.038;6.992;2023-03-01T12:12:29;7.55;;;6.75;;
19842;SDS011;10082;51.038;6.992;2023-03-01T12:15:20;7.45;;;6.75;;
19842;SDS011;10082;51.038;6.992;2023-03-01T12:18:12;7.60;;;6.80;;
19842;SDS011;10082;51.038;6.992;2023-03-01T12:21:00;7.65;;;6.68;;
19842;SDS011;10082;51.038;6.992;2023-03-01T12:23:52;7.72;;;7.03;;
19842;SDS011;10082;51.038;6.992;2023-03-01T12:26:42;8.13;;;7.33;;
19842;SDS011;10082;51.038;6.992;2023-03-01T12:29:23;7.75;;;7.05;;
19842;SDS011;10082;51.038;6.992;2023-03-01T12:32:15;7.60;;;6.90;;
19842;SDS011;10082;51.038;6.992;2023-03-01T12:35:01;7.80;;;7.00;;
19842;SDS011;10082;51.038;6.992;2023-03-01T12:37:44;7.43;;;6.70;;
19842;SDS011;10082;51.038;6.992;2023-03-01T12:40:32;7.50;;;6.80;;
19842;SDS011;10082;51.038;6.992;2023-03-01T12:43:17;8.02;;;7.32;;
19842;SDS011;10082;51.038;6.992;2023-03-01T12:46:00;7.50;;;6.80;;
19842;SDS011;10082;51.038;6.992;2023-03-01T12:48:47;6.68;;;5.95;;
19842;SDS011;10082;51.038;6.992;2023-03-01T12:51:26;7.72;;;6.63;;
19842;SDS011;10082;51.038;6.992;2023-03-01T12:54:11;7.78;;;6.57;;
19842;SDS011;10082;51.038;6.992;2023-03-01T12:56:46;6.82;;;6.22;;
19842;SDS011;10082;51.038;6.992;2023-03-01T12:59:18;7.35;;;6.72;;
19842;SDS011;10082;51.038;6.992;2023-03-01T13:01:56;6.97;;;6.15;;
19842;SDS011;10082;51.038;6.992;2023-03-01T13:04:38;8.45;;;6.60;;
19842;SDS011;10082;51.038;6.992;2023-03-01T13:07:28;7.20;;;6.50;;
19842;SDS011;10082;51.038;6.992;2023-03-01T13:10:15;7.30;;;6.60;;
19842;SDS011;10082;51.038;6.992;2023-03-01T13:13:01;7.07;;;6.47;;
19842;SDS011;10082;51.038;6.992;2023-03-01T13:15:40;7.05;;;6.35;;
19842;SDS011;10082;51.038;6.992;2023-03-01T13:21:03;7.00;;;6.30;;
19842;SDS011;10082;51.038;6.992;2023-03-01T13:23:36;6.63;;;6.00;;
19842;SDS011;10082;51.038;6.992;2023-03-01T13:26:08;8.00;;;6.68;;
19842;SDS011;10082;51.038;6.992;2023-03-01T13:28:51;6.60;;;6.00;;
19842;SDS011;10082;51.038;6.992;2023-03-01T13:34:40;8.05;;;6.82;;
19842;SDS011;10082;51.038;6.992;2023-03-01T13:37:24;6.85;;;6.07;;
19842;SDS011;10082;51.038;6.992;2023-03-01T13:39:59;6.10;;;5.50;;
19842;SDS011;10082;51.038;6.992;2023-03-01T13:42:34;6.15;;;5.55;;
19842;SDS011;10082;51.038;6.992;2023-03-01T13:45:04;6.07;;;5.47;;
19842;SDS011;10082;51.038;6.992;2023-03-01T13:47:42;6.60;;;5.70;;
19842;SDS011;10082;51.038;6.992;2023-03-01T13:50:16;5.97;;;5.47;;
19842;SDS011;10082;51.038;6.992;2023-03-01T13:52:46;6.20;;;5.60;;
19842;SDS011;10082;51.038;6.992;2023-03-01T13:55:18;6.25;;;5.70;;
19842;SDS011;10082;51.038;6.992;2023-03-01T13:57:53;6.88;;;6.28;;
19842;SDS011;10082;51.038;6.992;2023-03-01T14:00:26;7.07;;;6.07;;
19842;SDS011;10082;51.038;6.992;2023-03-01T14:02:59;6.50;;;5.90;;
19842;SDS011;10082;51.038;6.992;2023-03-01T14:05:27;6.63;;;6.03;;
19842;SDS011;10082;51.038;6.992;2023-03-01T14:07:55;6.90;;;6.22;;
19842;SDS011;10082;51.038;6.992;2023-03-01T14:10:22;7.25;;;6.55;;
19842;SDS011;10082;51.038;6.992;2023-03-01T14:12:59;7.50;;;6.45;;
19842;SDS011;10082;51.038;6.992;2023-03-01T14:15:39;6.80;;;6.10;;
19842;SDS011;10082;51.038;6.992;2023-03-01T14:18:16;7.18;;;6.20;;
19842;SDS011;10082;51.038;6.992;2023-03-01T14:20:52;6.75;;;6.05;;
19842;SDS011;10082;51.038;6.992;2023-03-01T14:23:21;6.70;;;6.10;;
19842;SDS011;10082;51.038;6.992;2023-03-01T14:25:49;8.05;;;6.47;;
19842;SDS011;10082;51.038;6.992;2023-03-01T14:28:21;7.88;;;5.90;;
19842;SDS011;10082;51.038;6.992;2023-03-01T14:30:52;7.32;;;6.63;;
19842;SDS011;10082;51.038;6.992;2023-03-01T14:33:21;7.60;;;6.22;;
19842;SDS011;10082;51.038;6.992;2023-03-01T14:35:55;7.72;;;6.28;;
19842;SDS011;10082;51.038;6.992;2023-03-01T14:38:28;7.40;;;6.70;;
19842;SDS011;10082;51.038;6.992;2023-03-01T14:41:00;9.07;;;7.03;;
19842;SDS011;10082;51.038;6.992;2023-03-01T14:43:32;7.13;;;6.43;;
19842;SDS011;10082;51.038;6.992;2023-03-01T14:46:00;9.05;;;6.03;;
19842;SDS011;10082;51.038;6.992;2023-03-01T14:48:27;7.53;;;6.25;;
19842;SDS011;10082;51.038;6.992;2023-03-01T14:50:56;7.68;;;6.38;;
19842;SDS011;10082;51.038;6.992;2023-03-01T14:53:25;6.50;;;5.90;;
19842;SDS011;10082;51.038;6.992;2023-03-01T14:55:55;7.55;;;6.43;;
19842;SDS011;10082;51.038;6.992;2023-03-01T14:58:27;7.35;;;6.75;;
19842;SDS011;10082;51.038;6.992;2023-03-01T15:00:57;6.60;;;6.00;;
19842;SDS011;10082;51.038;6.992;2023-03-01T15:03:27;7.72;;;6.65;;
19842;SDS011;10082;51.038;6.992;2023-03-01T15:05:59;8.07;;;7.05;;
19842;SDS011;10082;51.038;6.992;2023-03-01T15:08:28;7.32;;;6.55;;
19842;SDS011;10082;51.038;6.992;2023-03-01T15:11:02;6.93;;;6.18;;
19842;SDS011;10082;51.038;6.992;2023-03-01T15:13:32;7.45;;;6.63;;
19842;SDS011;10082;51.038;6.992;2023-03-01T15:16:02;6.90;;;6.20;;
19842;SDS011;10082;51.038;6.992;2023-03-01T15:18:35;7.00;;;6.30;;
19842;SDS011;10082;51.038;6.992;2023-03-01T15:21:07;8.77;;;6.22;;
19842;SDS011;10082;51.038;6.992;2023-03-01T15:23:36;6.28;;;5.50;;
19842;SDS011;10082;51.038;6.992;2023-03-01T15:26:05;7.07;;;6.38;;
19842;SDS011;10082;51.038;6.992;2023-03-01T15:28:34;7.68;;;5.88;;
19842;SDS011;10082;51.038;6.992;2023-03-01T15:31:13;6.70;;;6.00;;
19842;SDS011;10082;51.038;6.992;2023-03-01T15:33:47;7.20;;;6.50;;